sensor_id;sensor_type;location;lat;lon;timestamp;P1;durP1;ratioP1;P2;durP2;ratioP2
64609;SDS011;51019;46.090;6.350;2023-07-24T00:01:56;23.80;;;10.43;;
64609;SDS011;51019;46.090;6.350;2023-07-24T00:04:23;23.33;;;10.30;;
64609;SDS011;51019;46.090;6.350;2023-07-24T00:06:51;21.65;;;9.40;;
64609;SDS011;51019;46.090;6.350;2023-07-24T00:09:20;19.98;;;8.63;;
64609;SDS011;51019;46.090;6.350;2023-07-24T00:11:47;22.10;;;9.15;;
64609;SDS011;51019;46.090;6.350;2023-07-24T00:14:15;22.65;;;9.50;;
64609;SDS011;51019;46.090;6.350;2023-07-24T00:16:43;21.35;;;9.60;;
64609;SDS011;51019;46.090;6.350;2023-07-24T00:19:12;23.58;;;10.45;;
64609;SDS011;51019;46.090;6.350;2023-07-24T00:21:40;21.20;;;9.18;;
64609;SDS011;51019;46.090;6.350;2023-07-24T00:24:08;22.52;;;10.20;;
64609;SDS011;51019;46.090;6.350;2023-07-24T00:26:36;22.85;;;10.13;;
64609;SDS011;51019;46.090;6.350;2023-07-24T00:29:04;19.48;;;9.35;;
64609;SDS011;51019;46.090;6.350;2023-07-24T00:31:31;21.80;;;10.00;;
64609;SDS011;51019;46.090;6.350;2023-07-24T00:33:58;23.27;;;8.93;;
64609;SDS011;51019;46.090;6.350;2023-07-24T00:36:27;21.60;;;9.52;;
64609;SDS011;51019;46.090;6.350;2023-07-24T00:38:55;22.48;;;9.98;;
64609;SDS011;51019;46.090;6.350;2023-07-24T00:41:22;24.35;;;9.63;;
64609;SDS011;51019;46.090;6.350;2023-07-24T00:43:50;21.92;;;9.98;;
64609;SDS011;51019;46.090;6.350;2023-07-24T00:46:17;19.60;;;8.50;;
64609;SDS011;51019;46.090;6.350;2023-07-24T00:48:50;21.95;;;9.60;;
64609;SDS011;51019;46.090;6.350;2023-07-24T00:51:19;24.20;;;10.32;;
64609;SDS011;51019;46.090;6.350;2023-07-24T00:53:51;24.40;;;10.25;;
64609;SDS011;51019;46.090;6.350;2023-07-24T00:56:19;22.23;;;9.25;;
64609;SDS011;51019;46.090;6.350;2023-07-24T00:58:46;20.60;;;9.15;;
64609;SDS011;51019;46.090;6.350;2023-07-24T01:01:15;22.52;;;9.63;;
64609;SDS011;51019;46.090;6.350;2023-07-24T01:03:43;23.17;;;9.88;;
64609;SDS011;51019;46.090;6.350;2023-07-24T01:06:11;23.90;;;10.00;;
64609;SDS011;51019;46.090;6.350;2023-07-24T01:08:39;22.65;;;9.30;;
64609;SDS011;51019;46.090;6.350;2023-07-24T01:11:09;21.80;;;9.65;;
64609;SDS011;51019;46.090;6.350;2023-07-24T01:13:42;25.83;;;10.52;;
64609;SDS011;51019;46.090;6.350;2023-07-24T01:18:45;21.52;;;10.15;;
64609;SDS011;51019;46.090;6.350;2023-07-24T01:21:13;24.70;;;10.07;;
64609;SDS011;51019;46.090;6.350;2023-07-24T01:23:54;24.10;;;10.90;;
64609;SDS011;51019;46.090;6.350;2023-07-24T01:26:31;23.35;;;10.68;;
64609;SDS011;51019;46.090;6.350;2023-07-24T01:28:59;24.13;;;10.70;;
64609;SDS011;51019;46.090;6.350;2023-07-24T01:31:26;23.27;;;11.23;;
64609;SDS011;51019;46.090;6.350;2023-07-24T01:33:53;24.58;;;11.00;;
64609;SDS011;51019;46.090;6.350;2023-07-24T01:36:21;25.25;;;11.88;;
64609;SDS011;51019;46.090;6.350;2023-07-24T01:38:49;25.92;;;10.40;;
64609;SDS011;51019;46.090;6.350;2023-07-24T01:41:18;23.05;;;10.35;;
64609;SDS011;51019;46.090;6.350;2023-07-24T01:43:48;24.65;;;10.60;;
64609;SDS011;51019;46.090;6.350;2023-07-24T01:46:15;23.27;;;10.75;;
64609;SDS011;51019;46.090;6.350;2023-07-24T01:48:43;23.15;;;10.45;;
64609;SDS011;51019;46.090;6.350;2023-07-24T01:51:11;23.25;;;10.07;;
64609;SDS011;51019;46.090;6.350;2023-07-24T01:53:38;25.35;;;11.30;;
64609;SDS011;51019;46.090;6.350;2023-07-24T01:56:06;24.08;;;10.63;;
64609;SDS011;51019;46.090;6.350;2023-07-24T01:58:34;25.20;;;10.75;;
64609;SDS011;51019;46.090;6.350;2023-07-24T02:01:03;24.67;;;11.07;;
64609;SDS011;51019;46.090;6.350;2023-07-24T02:03:30;20.85;;;10.15;;
64609;SDS011;51019;46.090;6.350;2023-07-24T02:05:57;22.48;;;10.50;;
64609;SDS011;51019;46.090;6.350;2023-07-24T02:08:24;24.67;;;10.68;;
64609;SDS011;51019;46.090;6.350;2023-07-24T02:10:52;22.27;;;10.05;;
64609;SDS011;51019;46.090;6.350;2023-07-24T02:13:19;24.15;;;9.90;;
64609;SDS011;51019;46.090;6.350;2023-07-24T02:15:47;19.65;;;9.50;;
64609;SDS011;51019;46.090;6.350;2023-07-24T02:18:16;24.05;;;10.18;;
64609;SDS011;51019;46.090;6.350;2023-07-24T02:20:48;25.05;;;10.82;;
64609;SDS011;51019;46.090;6.350;2023-07-24T02:23:16;22.42;;;10.23;;
64609;SDS011;51019;46.090;6.350;2023-07-24T02:25:43;22.92;;;10.15;;
64609;SDS011;51019;46.090;6.350;2023-07-24T02:28:10;22.20;;;9.45;;
64609;SDS011;51019;46.090;6.350;2023-07-24T02:30:38;19.15;;;8.05;;
64609;SDS011;51019;46.090;6.350;2023-07-24T02:33:05;16.95;;;6.70;;
64609;SDS011;51019;46.090;6.350;2023-07-24T02:35:39;19.63;;;6.57;;
64609;SDS011;51019;46.090;6.350;2023-07-24T02:38:07;15.77;;;6.22;;
64609;SDS011;51019;46.090;6.350;2023-07-24T02:40:35;16.67;;;6.25;;
64609;SDS011;51019;46.090;6.350;2023-07-24T02:43:03;17.98;;;6.53;;
64609;SDS011;51019;46.090;6.350;2023-07-24T02:45:30;20.75;;;8.07;;
64609;SDS011;51019;46.090;6.350;2023-07-24T02:48:00;23.00;;;8.45;;
64609;SDS011;51019;46.090;6.350;2023-07-24T02:50:28;20.55;;;8.35;;
64609;SDS011;51019;46.090;6.350;2023-07-24T02:52:57;18.42;;;8.50;;
64609;SDS011;51019;46.090;6.350;2023-07-24T02:55:25;22.27;;;8.13;;
64609;SDS011;51019;46.090;6.350;2023-07-24T02:57:53;18.73;;;8.73;;
64609;SDS011;51019;46.090;6.350;2023-07-24T03:00:20;21.00;;;8.27;;
64609;SDS011;51019;46.090;6.350;2023-07-24T03:02:48;19.50;;;8.63;;
64609;SDS011;51019;46.090;6.350;2023-07-24T03:05:15;19.95;;;8.43;;
64609;SDS011;51019;46.090;6.350;2023-07-24T03:07:42;23.58;;;8.77;;
64609;SDS011;51019;46.090;6.350;2023-07-24T03:10:12;20.02;;;8.02;;
64609;SDS011;51019;46.090;6.350;2023-07-24T03:12:39;20.50;;;8.35;;
64609;SDS011;51019;46.090;6.350;2023-07-24T03:15:07;19.52;;;7.88;;
64609;SDS011;51019;46.090;6.350;2023-07-24T03:17:35;18.38;;;6.57;;
64609;SDS011;51019;46.090;6.350;2023-07-24T03:20:08;16.90;;;6.55;;
64609;SDS011;51019;46.090;6.350;2023-07-24T03:22:36;15.10;;;5.82;;
64609;SDS011;51019;46.090;6.350;2023-07-24T03:25:03;13.73;;;5.43;;
64609;SDS011;51019;46.090;6.350;2023-07-24T03:27:33;16.48;;;6.43;;
64609;SDS011;51019;46.090;6.350;2023-07-24T03:30:00;15.18;;;6.10;;
64609;SDS011;51019;46.090;6.350;2023-07-24T03:32:28;15.70;;;5.43;;
64609;SDS011;51019;46.090;6.350;2023-07-24T03:34:57;16.95;;;6.35;;
64609;SDS011;51019;46.090;6.350;2023-07-24T03:37:24;16.25;;;6.13;;
64609;SDS011;51019;46.090;6.350;2023-07-24T03:39:51;16.75;;;6.05;;
64609;SDS011;51019;46.090;6.350;2023-07-24T03:42:26;17.20;;;5.65;;
64609;SDS011;51019;46.090;6.350;2023-07-24T03:44:55;15.90;;;6.00;;
64609;SDS011;51019;46.090;6.350;2023-07-24T03:47:23;16.10;;;6.72;;
64609;SDS011;51019;46.090;6.350;2023-07-24T03:49:51;18.73;;;6.82;;
64609;SDS011;51019;46.090;6.350;2023-07-24T03:52:19;15.98;;;6.30;;
64609;SDS011;51019;46.090;6.350;2023-07-24T03:54:46;15.60;;;6.55;;
64609;SDS011;51019;46.090;6.350;2023-07-24T03:57:13;15.63;;;6.60;;
64609;SDS011;51019;46.090;6.350;2023-07-24T03:59:40;16.23;;;6.78;;
64609;SDS011;51019;46.090;6.350;2023-07-24T04:02:09;15.65;;;5.95;;
64609;SDS011;51019;46.090;6.350;2023-07-24T04:04:37;16.95;;;6.70;;
64609;SDS011;51019;46.090;6.350;2023-07-24T04:07:05;15.48;;;6.10;;
64609;SDS011;51019;46.090;6.350;2023-07-24T04:09:32;16.02;;;5.90;;
64609;SDS011;51019;46.090;6.350;2023-07-24T04:12:00;14.68;;;5.72;;
64609;SDS011;51019;46.090;6.350;2023-07-24T04:14:27;14.15;;;5.80;;
64609;SDS011;51019;46.090;6.350;2023-07-24T04:16:55;16.25;;;6.03;;
64609;SDS011;51019;46.090;6.350;2023-07-24T04:19:24;13.40;;;5.25;;
64609;SDS011;51019;46.090;6.350;2023-07-24T04:21:51;15.32;;;5.60;;
64609;SDS011;51019;46.090;6.350;2023-07-24T04:24:18;14.65;;;5.82;;
64609;SDS011;51019;46.090;6.350;2023-07-24T04:26:46;16.52;;;6.15;;
64609;SDS011;51019;46.090;6.350;2023-07-24T04:29:13;12.88;;;5.65;;
64609;SDS011;51019;46.090;6.350;2023-07-24T04:31:42;16.08;;;5.97;;
64609;SDS011;51019;46.090;6.350;2023-07-24T04:34:10;17.13;;;6.80;;
64609;SDS011;51019;46.090;6.350;2023-07-24T04:36:39;15.63;;;6.47;;
64609;SDS011;51019;46.090;6.350;2023-07-24T04:39:06;15.45;;;5.90;;
64609;SDS011;51019;46.090;6.350;2023-07-24T04:41:33;16.27;;;6.60;;
64609;SDS011;51019;46.090;6.350;2023-07-24T04:44:00;15.88;;;6.60;;
64609;SDS011;51019;46.090;6.350;2023-07-24T04:46:27;16.27;;;6.25;;
64609;SDS011;51019;46.090;6.350;2023-07-24T04:48:55;14.63;;;5.82;;
64609;SDS011;51019;46.090;6.350;2023-07-24T04:51:22;13.65;;;5.65;;
64609;SDS011;51019;46.090;6.350;2023-07-24T04:53:51;17.67;;;6.10;;
64609;SDS011;51019;46.090;6.350;2023-07-24T04:56:20;19.27;;;6.03;;
64609;SDS011;51019;46.090;6.350;2023-07-24T04:58:47;16.70;;;6.28;;
64609;SDS011;51019;46.090;6.350;2023-07-24T05:01:14;16.08;;;6.10;;
64609;SDS011;51019;46.090;6.350;2023-07-24T05:03:42;14.27;;;5.75;;
64609;SDS011;51019;46.090;6.350;2023-07-24T05:06:09;15.30;;;5.82;;
64609;SDS011;51019;46.090;6.350;2023-07-24T05:08:37;15.18;;;6.55;;
64609;SDS011;51019;46.090;6.350;2023-07-24T05:11:06;14.32;;;6.00;;
64609;SDS011;51019;46.090;6.350;2023-07-24T05:13:33;15.93;;;5.43;;
64609;SDS011;51019;46.090;6.350;2023-07-24T05:16:00;15.07;;;5.75;;
64609;SDS011;51019;46.090;6.350;2023-07-24T05:18:28;13.38;;;5.00;;
64609;SDS011;51019;46.090;6.350;2023-07-24T05:20:55;16.33;;;6.40;;
64609;SDS011;51019;46.090;6.350;2023-07-24T05:23:23;14.20;;;5.05;;
64609;SDS011;51019;46.090;6.350;2023-07-24T05:25:55;15.52;;;6.30;;
64609;SDS011;51019;46.090;6.350;2023-07-24T05:28:25;15.55;;;5.43;;
64609;SDS011;51019;46.090;6.350;2023-07-24T05:30:52;16.15;;;5.55;;
64609;SDS011;51019;46.090;6.350;2023-07-24T05:33:20;13.50;;;4.97;;
64609;SDS011;51019;46.090;6.350;2023-07-24T05:35:48;14.88;;;5.38;;
64609;SDS011;51019;46.090;6.350;2023-07-24T05:38:15;14.23;;;5.50;;
64609;SDS011;51019;46.090;6.350;2023-07-24T05:40:43;17.13;;;5.70;;
64609;SDS011;51019;46.090;6.350;2023-07-24T05:43:10;13.00;;;4.75;;
64609;SDS011;51019;46.090;6.350;2023-07-24T05:45:39;13.57;;;4.68;;
64609;SDS011;51019;46.090;6.350;2023-07-24T05:48:07;12.30;;;5.20;;
64609;SDS011;51019;46.090;6.350;2023-07-24T05:50:34;13.40;;;4.95;;
64609;SDS011;51019;46.090;6.350;2023-07-24T05:53:01;12.07;;;4.28;;
64609;SDS011;51019;46.090;6.350;2023-07-24T05:55:31;18.60;;;4.88;;
64609;SDS011;51019;46.090;6.350;2023-07-24T05:57:59;15.32;;;4.72;;
64609;SDS011;51019;46.090;6.350;2023-07-24T06:00:32;13.32;;;4.50;;
64609;SDS011;51019;46.090;6.350;2023-07-24T06:03:02;12.50;;;4.28;;
64609;SDS011;51019;46.090;6.350;2023-07-24T06:05:32;13.60;;;4.40;;
64609;SDS011;51019;46.090;6.350;2023-07-24T06:08:01;14.73;;;3.78;;
64609;SDS011;51019;46.090;6.350;2023-07-24T06:10:28;13.63;;;4.28;;
64609;SDS011;51019;46.090;6.350;2023-07-24T06:12:55;12.60;;;4.90;;
64609;SDS011;51019;46.090;6.350;2023-07-24T06:15:24;16.98;;;4.80;;
64609;SDS011;51019;46.090;6.350;2023-07-24T06:17:52;13.38;;;4.32;;
64609;SDS011;51019;46.090;6.350;2023-07-24T06:20:22;13.55;;;4.85;;
64609;SDS011;51019;46.090;6.350;2023-07-24T06:22:49;14.10;;;4.72;;
64609;SDS011;51019;46.090;6.350;2023-07-24T06:25:16;13.85;;;4.15;;
64609;SDS011;51019;46.090;6.350;2023-07-24T06:27:46;12.85;;;3.90;;
64609;SDS011;51019;46.090;6.350;2023-07-24T06:30:21;14.82;;;4.80;;
64609;SDS011;51019;46.090;6.350;2023-07-24T06:33:10;16.67;;;5.32;;
64609;SDS011;51019;46.090;6.350;2023-07-24T06:36:10;16.65;;;5.00;;
64609;SDS011;51019;46.090;6.350;2023-07-24T06:38:38;13.10;;;5.15;;
64609;SDS011;51019;46.090;6.350;2023-07-24T06:41:07;13.73;;;4.20;;
64609;SDS011;51019;46.090;6.350;2023-07-24T06:43:35;13.85;;;4.93;;
64609;SDS011;51019;46.090;6.350;2023-07-24T06:46:02;16.90;;;4.82;;
64609;SDS011;51019;46.090;6.350;2023-07-24T06:48:29;16.10;;;5.20;;
64609;SDS011;51019;46.090;6.350;2023-07-24T06:50:58;15.60;;;4.82;;
64609;SDS011;51019;46.090;6.350;2023-07-24T06:53:28;16.75;;;5.18;;
64609;SDS011;51019;46.090;6.350;2023-07-24T06:56:04;12.35;;;4.57;;
64609;SDS011;51019;46.090;6.350;2023-07-24T06:59:02;14.85;;;4.53;;
64609;SDS011;51019;46.090;6.350;2023-07-24T07:01:30;12.57;;;4.38;;
64609;SDS011;51019;46.090;6.350;2023-07-24T07:04:19;13.68;;;4.55;;
64609;SDS011;51019;46.090;6.350;2023-07-24T07:06:49;14.80;;;4.47;;
64609;SDS011;51019;46.090;6.350;2023-07-24T07:12:06;14.35;;;4.05;;
64609;SDS011;51019;46.090;6.350;2023-07-24T07:14:33;15.82;;;4.60;;
64609;SDS011;51019;46.090;6.350;2023-07-24T07:17:01;13.15;;;4.13;;
64609;SDS011;51019;46.090;6.350;2023-07-24T07:19:29;11.85;;;4.07;;
64609;SDS011;51019;46.090;6.350;2023-07-24T07:24:31;12.38;;;3.85;;
64609;SDS011;51019;46.090;6.350;2023-07-24T07:27:00;12.55;;;4.38;;
64609;SDS011;51019;46.090;6.350;2023-07-24T07:29:28;16.17;;;4.20;;
64609;SDS011;51019;46.090;6.350;2023-07-24T07:32:03;13.30;;;3.75;;
64609;SDS011;51019;46.090;6.350;2023-07-24T07:34:34;13.35;;;4.18;;
64609;SDS011;51019;46.090;6.350;2023-07-24T07:37:04;13.15;;;4.28;;
64609;SDS011;51019;46.090;6.350;2023-07-24T07:39:33;13.60;;;4.22;;
64609;SDS011;51019;46.090;6.350;2023-07-24T07:42:04;13.13;;;4.75;;
64609;SDS011;51019;46.090;6.350;2023-07-24T07:44:33;15.25;;;4.82;;
64609;SDS011;51019;46.090;6.350;2023-07-24T07:47:00;13.15;;;4.05;;
64609;SDS011;51019;46.090;6.350;2023-07-24T07:49:27;11.88;;;3.92;;
64609;SDS011;51019;46.090;6.350;2023-07-24T07:51:55;13.40;;;4.15;;
64609;SDS011;51019;46.090;6.350;2023-07-24T07:54:22;16.50;;;4.80;;
64609;SDS011;51019;46.090;6.350;2023-07-24T07:56:49;15.70;;;4.70;;
64609;SDS011;51019;46.090;6.350;2023-07-24T07:59:19;13.20;;;4.53;;
64609;SDS011;51019;46.090;6.350;2023-07-24T08:01:47;11.93;;;4.07;;
64609;SDS011;51019;46.090;6.350;2023-07-24T08:04:15;15.52;;;4.35;;
64609;SDS011;51019;46.090;6.350;2023-07-24T08:06:45;12.27;;;4.15;;
64609;SDS011;51019;46.090;6.350;2023-07-24T08:09:13;12.77;;;3.92;;
64609;SDS011;51019;46.090;6.350;2023-07-24T08:11:40;12.95;;;4.30;;
64609;SDS011;51019;46.090;6.350;2023-07-24T08:14:10;14.25;;;4.00;;
64609;SDS011;51019;46.090;6.350;2023-07-24T08:16:41;15.63;;;4.70;;
64609;SDS011;51019;46.090;6.350;2023-07-24T08:19:09;14.55;;;4.57;;
64609;SDS011;51019;46.090;6.350;2023-07-24T08:21:36;12.77;;;4.93;;
64609;SDS011;51019;46.090;6.350;2023-07-24T08:24:05;14.48;;;4.80;;
64609;SDS011;51019;46.090;6.350;2023-07-24T08:26:34;12.05;;;4.38;;
64609;SDS011;51019;46.090;6.350;2023-07-24T08:29:03;12.82;;;4.18;;
64609;SDS011;51019;46.090;6.350;2023-07-24T08:31:32;13.32;;;3.90;;
64609;SDS011;51019;46.090;6.350;2023-07-24T08:34:03;12.07;;;3.88;;
64609;SDS011;51019;46.090;6.350;2023-07-24T08:36:30;13.52;;;4.10;;
64609;SDS011;51019;46.090;6.350;2023-07-24T08:38:58;14.35;;;4.20;;
64609;SDS011;51019;46.090;6.350;2023-07-24T08:41:25;14.18;;;4.30;;
64609;SDS011;51019;46.090;6.350;2023-07-24T08:43:53;10.88;;;3.40;;
64609;SDS011;51019;46.090;6.350;2023-07-24T08:46:21;14.63;;;4.15;;
64609;SDS011;51019;46.090;6.350;2023-07-24T08:48:52;16.17;;;4.03;;
64609;SDS011;51019;46.090;6.350;2023-07-24T08:51:22;12.20;;;4.45;;
64609;SDS011;51019;46.090;6.350;2023-07-24T08:53:51;14.88;;;4.22;;
64609;SDS011;51019;46.090;6.350;2023-07-24T08:56:20;12.73;;;3.75;;
64609;SDS011;51019;46.090;6.350;2023-07-24T08:58:50;14.80;;;4.00;;
64609;SDS011;51019;46.090;6.350;2023-07-24T09:01:18;14.00;;;3.90;;
64609;SDS011;51019;46.090;6.350;2023-07-24T09:03:45;12.80;;;4.90;;
64609;SDS011;51019;46.090;6.350;2023-07-24T09:06:13;11.70;;;3.75;;
64609;SDS011;51019;46.090;6.350;2023-07-24T09:08:45;13.43;;;3.88;;
64609;SDS011;51019;46.090;6.350;2023-07-24T09:11:13;12.10;;;4.13;;
64609;SDS011;51019;46.090;6.350;2023-07-24T09:13:41;17.13;;;4.45;;
64609;SDS011;51019;46.090;6.350;2023-07-24T09:16:20;14.30;;;3.95;;
64609;SDS011;51019;46.090;6.350;2023-07-24T09:18:48;12.63;;;4.32;;
64609;SDS011;51019;46.090;6.350;2023-07-24T09:21:26;16.80;;;4.90;;
64609;SDS011;51019;46.090;6.350;2023-07-24T09:26:56;15.32;;;4.10;;
64609;SDS011;51019;46.090;6.350;2023-07-24T09:29:29;15.32;;;3.55;;
64609;SDS011;51019;46.090;6.350;2023-07-24T09:32:21;14.85;;;4.00;;
64609;SDS011;51019;46.090;6.350;2023-07-24T09:35:15;13.18;;;4.55;;
64609;SDS011;51019;46.090;6.350;2023-07-24T09:37:44;15.70;;;4.22;;
64609;SDS011;51019;46.090;6.350;2023-07-24T09:40:16;14.65;;;4.68;;
64609;SDS011;51019;46.090;6.350;2023-07-24T09:42:45;14.50;;;4.70;;
64609;SDS011;51019;46.090;6.350;2023-07-24T09:45:13;12.45;;;4.20;;
64609;SDS011;51019;46.090;6.350;2023-07-24T09:47:41;13.63;;;5.43;;
64609;SDS011;51019;46.090;6.350;2023-07-24T09:50:09;13.55;;;4.50;;
64609;SDS011;51019;46.090;6.350;2023-07-24T09:52:39;14.95;;;4.32;;
64609;SDS011;51019;46.090;6.350;2023-07-24T09:55:15;15.40;;;4.20;;
64609;SDS011;51019;46.090;6.350;2023-07-24T09:57:59;13.98;;;4.68;;
64609;SDS011;51019;46.090;6.350;2023-07-24T10:00:33;15.57;;;5.47;;
64609;SDS011;51019;46.090;6.350;2023-07-24T10:03:16;13.48;;;5.22;;
64609;SDS011;51019;46.090;6.350;2023-07-24T10:05:45;17.10;;;5.18;;
64609;SDS011;51019;46.090;6.350;2023-07-24T10:08:14;16.48;;;4.72;;
64609;SDS011;51019;46.090;6.350;2023-07-24T10:10:52;15.50;;;5.25;;
64609;SDS011;51019;46.090;6.350;2023-07-24T10:13:33;14.48;;;5.75;;
64609;SDS011;51019;46.090;6.350;2023-07-24T10:16:37;15.25;;;4.93;;
64609;SDS011;51019;46.090;6.350;2023-07-24T10:19:15;15.13;;;5.13;;
64609;SDS011;51019;46.090;6.350;2023-07-24T10:21:51;15.68;;;5.57;;
64609;SDS011;51019;46.090;6.350;2023-07-24T10:24:47;15.45;;;5.63;;
64609;SDS011;51019;46.090;6.350;2023-07-24T10:27:17;14.73;;;5.63;;
64609;SDS011;51019;46.090;6.350;2023-07-24T10:29:58;13.65;;;4.95;;
64609;SDS011;51019;46.090;6.350;2023-07-24T10:32:26;14.77;;;5.47;;
64609;SDS011;51019;46.090;6.350;2023-07-24T10:34:57;13.82;;;5.00;;
64609;SDS011;51019;46.090;6.350;2023-07-24T10:37:33;16.13;;;5.10;;
64609;SDS011;51019;46.090;6.350;2023-07-24T10:40:01;12.35;;;4.20;;
64609;SDS011;51019;46.090;6.350;2023-07-24T10:42:41;12.70;;;4.30;;
64609;SDS011;51019;46.090;6.350;2023-07-24T10:45:11;14.20;;;4.90;;
64609;SDS011;51019;46.090;6.350;2023-07-24T10:47:39;14.27;;;4.60;;
64609;SDS011;51019;46.090;6.350;2023-07-24T10:50:07;14.38;;;5.13;;
64609;SDS011;51019;46.090;6.350;2023-07-24T10:52:34;14.93;;;4.25;;
64609;SDS011;51019;46.090;6.350;2023-07-24T10:55:02;12.93;;;4.45;;
64609;SDS011;51019;46.090;6.350;2023-07-24T10:57:29;12.75;;;4.30;;
64609;SDS011;51019;46.090;6.350;2023-07-24T10:59:58;13.65;;;4.70;;
64609;SDS011;51019;46.090;6.350;2023-07-24T11:02:26;12.95;;;4.75;;
64609;SDS011;51019;46.090;6.350;2023-07-24T11:04:54;13.15;;;4.40;;
64609;SDS011;51019;46.090;6.350;2023-07-24T11:07:25;13.25;;;4.43;;
64609;SDS011;51019;46.090;6.350;2023-07-24T11:09:59;13.52;;;4.40;;
64609;SDS011;51019;46.090;6.350;2023-07-24T11:12:26;14.73;;;4.63;;
64609;SDS011;51019;46.090;6.350;2023-07-24T11:14:56;12.13;;;4.70;;
64609;SDS011;51019;46.090;6.350;2023-07-24T11:17:34;15.27;;;4.53;;
64609;SDS011;51019;46.090;6.350;2023-07-24T11:20:07;12.90;;;4.88;;
64609;SDS011;51019;46.090;6.350;2023-07-24T11:22:38;12.60;;;4.25;;
64609;SDS011;51019;46.090;6.350;2023-07-24T11:25:06;13.27;;;4.78;;
64609;SDS011;51019;46.090;6.350;2023-07-24T11:27:37;13.40;;;4.55;;
64609;SDS011;51019;46.090;6.350;2023-07-24T11:30:09;13.32;;;4.28;;
64609;SDS011;51019;46.090;6.350;2023-07-24T11:32:40;13.40;;;4.47;;
64609;SDS011;51019;46.090;6.350;2023-07-24T11:35:08;14.95;;;4.40;;
64609;SDS011;51019;46.090;6.350;2023-07-24T11:37:36;17.60;;;4.50;;
64609;SDS011;51019;46.090;6.350;2023-07-24T11:40:04;13.15;;;5.05;;
64609;SDS011;51019;46.090;6.350;2023-07-24T11:42:38;13.60;;;4.60;;
64609;SDS011;51019;46.090;6.350;2023-07-24T11:45:07;14.90;;;4.82;;
64609;SDS011;51019;46.090;6.350;2023-07-24T11:47:44;12.45;;;4.20;;
64609;SDS011;51019;46.090;6.350;2023-07-24T11:50:14;14.27;;;4.28;;
64609;SDS011;51019;46.090;6.350;2023-07-24T11:52:43;15.23;;;4.50;;
64609;SDS011;51019;46.090;6.350;2023-07-24T11:55:12;15.23;;;4.80;;
64609;SDS011;51019;46.090;6.350;2023-07-24T11:57:40;13.55;;;4.40;;
64609;SDS011;51019;46.090;6.350;2023-07-24T12:00:17;14.55;;;4.63;;
64609;SDS011;51019;46.090;6.350;2023-07-24T12:02:47;14.23;;;4.72;;
64609;SDS011;51019;46.090;6.350;2023-07-24T12:05:15;17.30;;;4.80;;
64609;SDS011;51019;46.090;6.350;2023-07-24T12:07:45;12.88;;;4.30;;
64609;SDS011;51019;46.090;6.350;2023-07-24T12:10:13;13.07;;;4.07;;
64609;SDS011;51019;46.090;6.350;2023-07-24T12:12:53;13.23;;;4.13;;
64609;SDS011;51019;46.090;6.350;2023-07-24T12:15:21;14.50;;;4.43;;
64609;SDS011;51019;46.090;6.350;2023-07-24T12:17:50;14.68;;;4.40;;
64609;SDS011;51019;46.090;6.350;2023-07-24T12:20:23;13.60;;;3.95;;
64609;SDS011;51019;46.090;6.350;2023-07-24T12:22:51;13.15;;;4.18;;
64609;SDS011;51019;46.090;6.350;2023-07-24T12:25:19;14.02;;;4.18;;
64609;SDS011;51019;46.090;6.350;2023-07-24T12:27:47;16.58;;;4.68;;
64609;SDS011;51019;46.090;6.350;2023-07-24T12:30:14;14.10;;;4.68;;
64609;SDS011;51019;46.090;6.350;2023-07-24T12:35:58;14.23;;;4.18;;
64609;SDS011;51019;46.090;6.350;2023-07-24T12:38:26;14.07;;;4.35;;
64609;SDS011;51019;46.090;6.350;2023-07-24T12:40:55;13.50;;;4.25;;
64609;SDS011;51019;46.090;6.350;2023-07-24T12:43:31;13.15;;;5.13;;
64609;SDS011;51019;46.090;6.350;2023-07-24T12:46:11;15.93;;;4.28;;
64609;SDS011;51019;46.090;6.350;2023-07-24T12:48:42;14.60;;;5.18;;
64609;SDS011;51019;46.090;6.350;2023-07-24T12:51:11;14.63;;;4.88;;
64609;SDS011;51019;46.090;6.350;2023-07-24T12:53:40;13.10;;;4.68;;
64609;SDS011;51019;46.090;6.350;2023-07-24T12:56:12;14.43;;;4.65;;
64609;SDS011;51019;46.090;6.350;2023-07-24T12:58:41;14.30;;;5.57;;
64609;SDS011;51019;46.090;6.350;2023-07-24T13:01:09;13.63;;;4.47;;
64609;SDS011;51019;46.090;6.350;2023-07-24T13:03:36;14.55;;;4.90;;
64609;SDS011;51019;46.090;6.350;2023-07-24T13:06:04;13.18;;;5.20;;
64609;SDS011;51019;46.090;6.350;2023-07-24T13:08:33;14.77;;;5.05;;
64609;SDS011;51019;46.090;6.350;2023-07-24T13:11:02;14.10;;;4.68;;
64609;SDS011;51019;46.090;6.350;2023-07-24T13:13:29;16.27;;;5.35;;
64609;SDS011;51019;46.090;6.350;2023-07-24T13:15:57;15.23;;;4.85;;
64609;SDS011;51019;46.090;6.350;2023-07-24T13:18:24;15.63;;;5.40;;
64609;SDS011;51019;46.090;6.350;2023-07-24T13:20:52;15.20;;;5.55;;
64609;SDS011;51019;46.090;6.350;2023-07-24T13:23:19;14.07;;;4.97;;
64609;SDS011;51019;46.090;6.350;2023-07-24T13:25:48;13.07;;;5.15;;
64609;SDS011;51019;46.090;6.350;2023-07-24T13:28:16;18.75;;;5.72;;
64609;SDS011;51019;46.090;6.350;2023-07-24T13:30:43;19.77;;;5.75;;
64609;SDS011;51019;46.090;6.350;2023-07-24T13:33:10;16.25;;;5.70;;
64609;SDS011;51019;46.090;6.350;2023-07-24T13:35:38;17.48;;;5.57;;
64609;SDS011;51019;46.090;6.350;2023-07-24T13:38:06;30.77;;;9.30;;
64609;SDS011;51019;46.090;6.350;2023-07-24T13:40:35;24.65;;;7.05;;
64609;SDS011;51019;46.090;6.350;2023-07-24T13:43:04;23.63;;;7.50;;
64609;SDS011;51019;46.090;6.350;2023-07-24T13:45:36;23.42;;;7.57;;
64609;SDS011;51019;46.090;6.350;2023-07-24T13:48:04;20.63;;;7.85;;
64609;SDS011;51019;46.090;6.350;2023-07-24T13:50:31;18.02;;;7.15;;
64609;SDS011;51019;46.090;6.350;2023-07-24T13:52:59;16.98;;;6.38;;
64609;SDS011;51019;46.090;6.350;2023-07-24T13:55:28;22.50;;;8.02;;
64609;SDS011;51019;46.090;6.350;2023-07-24T13:57:55;17.15;;;7.32;;
64609;SDS011;51019;46.090;6.350;2023-07-24T14:00:25;21.95;;;7.90;;
64609;SDS011;51019;46.090;6.350;2023-07-24T14:02:53;19.40;;;6.93;;
64609;SDS011;51019;46.090;6.350;2023-07-24T14:05:20;16.67;;;6.18;;
64609;SDS011;51019;46.090;6.350;2023-07-24T14:07:47;16.27;;;6.50;;
64609;SDS011;51019;46.090;6.350;2023-07-24T14:10:15;17.38;;;7.00;;
64609;SDS011;51019;46.090;6.350;2023-07-24T14:12:42;18.77;;;6.53;;
64609;SDS011;51019;46.090;6.350;2023-07-24T14:15:10;18.77;;;6.85;;
64609;SDS011;51019;46.090;6.350;2023-07-24T14:17:39;17.70;;;7.40;;
64609;SDS011;51019;46.090;6.350;2023-07-24T14:20:07;18.63;;;6.93;;
64609;SDS011;51019;46.090;6.350;2023-07-24T14:22:36;20.33;;;7.88;;
64609;SDS011;51019;46.090;6.350;2023-07-24T14:25:03;25.95;;;8.68;;
64609;SDS011;51019;46.090;6.350;2023-07-24T14:27:31;18.08;;;6.05;;
64609;SDS011;51019;46.090;6.350;2023-07-24T14:29:59;15.05;;;5.13;;
64609;SDS011;51019;46.090;6.350;2023-07-24T14:32:26;15.70;;;5.03;;
64609;SDS011;51019;46.090;6.350;2023-07-24T14:34:56;15.73;;;5.35;;
64609;SDS011;51019;46.090;6.350;2023-07-24T14:37:25;16.00;;;5.50;;
64609;SDS011;51019;46.090;6.350;2023-07-24T14:39:52;15.27;;;6.18;;
64609;SDS011;51019;46.090;6.350;2023-07-24T14:42:20;16.08;;;5.90;;
64609;SDS011;51019;46.090;6.350;2023-07-24T14:44:47;13.50;;;5.60;;
64609;SDS011;51019;46.090;6.350;2023-07-24T14:47:15;13.98;;;4.82;;
64609;SDS011;51019;46.090;6.350;2023-07-24T14:49:42;14.55;;;4.70;;
64609;SDS011;51019;46.090;6.350;2023-07-24T14:52:11;15.35;;;5.90;;
64609;SDS011;51019;46.090;6.350;2023-07-24T14:54:39;15.73;;;5.38;;
64609;SDS011;51019;46.090;6.350;2023-07-24T14:57:06;13.63;;;4.68;;
64609;SDS011;51019;46.090;6.350;2023-07-24T14:59:36;13.77;;;4.80;;
64609;SDS011;51019;46.090;6.350;2023-07-24T15:02:04;15.23;;;4.68;;